Time;durP1;ratioP1;P1;durP2;ratioP2;P2;SDS_P1;SDS_P2;PMS_P1;PMS_P2;Temp;Humidity;BMP_temperature;BMP_pressure;BME280_temperature;BME280_humidity;BME280_pressure;Samples;Min_cycle;Max_cycle;Signal;HPM_P1;HPM_P2
2024/04/08 00:02:32;;;;;;;4.75;2.97;;;21.20;99.90;;;;;;10149032;28;20064;-65
2024/04/08 00:07:23;;;;;;;6.55;3.05;;;21.30;99.90;;;;;;10130595;28;20568;-66
2024/04/08 00:12:14;;;;;;;6.55;3.13;;;21.30;99.90;;;;;;10136341;28;20044;-65
2024/04/08 00:17:04;;;;;;;7.97;3.20;;;21.30;99.90;;;;;;10138205;28;20033;-65
2024/04/08 00:21:55;;;;;;;9.32;3.42;;;21.40;99.90;;;;;;10137691;28;20040;-65
2024/04/08 00:26:45;;;;;;;3.97;2.53;;;21.30;99.90;;;;;;10144115;28;20055;-66
2024/04/08 00:31:36;;;;;;;4.57;2.90;;;21.30;99.90;;;;;;10143859;28;20084;-65
2024/04/08 00:36:27;;;;;;;7.93;3.30;;;21.30;99.90;;;;;;10144525;28;20044;-66
2024/04/08 00:41:17;;;;;;;10.40;3.08;;;21.30;99.90;;;;;;10137265;28;20057;-65
2024/04/08 00:46:20;;;;;;;4.50;2.53;;;21.20;99.90;;;;;;10135509;28;20024;-65
2024/04/08 00:51:11;;;;;;;6.10;2.22;;;21.10;99.90;;;;;;10145587;28;20028;-65
2024/04/08 00:56:01;;;;;;;8.57;2.33;;;21.00;99.90;;;;;;10148532;28;20561;-66
2024/04/08 01:00:52;;;;;;;5.85;2.50;;;21.00;99.90;;;;;;10147273;28;20062;-65
2024/04/08 01:05:47;;;;;;;7.82;2.55;;;20.80;99.90;;;;;;10152000;28;20132;-67
2024/04/08 01:10:38;;;;;;;6.07;2.45;;;20.80;99.90;;;;;;10158385;22;20048;-75
2024/04/08 01:15:30;;;;;;;7.13;2.60;;;20.80;99.90;;;;;;10146425;28;20039;-72
2024/04/08 01:20:20;;;;;;;4.70;2.35;;;20.80;99.90;;;;;;10147608;28;20052;-73
2024/04/08 01:25:11;;;;;;;7.30;2.88;;;20.80;99.90;;;;;;10145611;28;20517;-73
2024/04/08 01:30:02;;;;;;;6.30;2.92;;;20.80;99.90;;;;;;10143544;28;20051;-73
2024/04/08 01:34:52;;;;;;;3.70;1.98;;;20.70;99.90;;;;;;10144576;28;20043;-73
2024/04/08 01:39:43;;;;;;;6.07;3.40;;;20.70;99.90;;;;;;10141801;28;20063;-73
2024/04/08 01:44:33;;;;;;;4.07;2.00;;;20.70;99.90;;;;;;10129935;28;20054;-73
2024/04/08 01:49:26;;;;;;;4.55;2.30;;;20.70;99.90;;;;;;10132715;28;20036;-72
2024/04/08 01:54:17;;;;;;;3.58;1.95;;;20.70;99.90;;;;;;10145003;28;20032;-72
2024/04/08 01:59:08;;;;;;;6.82;2.80;;;20.60;99.90;;;;;;10146534;28;20122;-73
2024/04/08 02:03:58;;;;;;;4.50;2.35;;;20.70;99.90;;;;;;10163334;28;20572;-73
2024/04/08 02:08:49;;;;;;;7.50;2.33;;;20.60;99.90;;;;;;10148051;28;20120;-73
2024/04/08 02:13:41;;;;;;;4.93;2.15;;;20.60;99.90;;;;;;10136035;28;20024;-73
2024/04/08 02:18:32;;;;;;;6.38;2.63;;;20.60;99.90;;;;;;10126232;28;20064;-73
2024/04/08 02:23:22;;;;;;;7.35;2.30;;;20.60;99.90;;;;;;10138874;28;20465;-73
2024/04/08 02:28:13;;;;;;;4.70;2.17;;;20.50;99.90;;;;;;10151307;28;20052;-72
2024/04/08 02:33:05;;;;;;;4.32;2.47;;;20.50;99.90;;;;;;10173754;28;20063;-73
2024/04/08 02:37:56;;;;;;;5.45;2.63;;;20.50;99.90;;;;;;10148032;28;20111;-73
2024/04/08 02:42:46;;;;;;;10.68;3.05;;;20.40;99.90;;;;;;10145759;28;20027;-73
2024/04/08 02:47:37;;;;;;;6.45;2.70;;;20.40;99.90;;;;;;10132794;28;20048;-73
2024/04/08 02:52:28;;;;;;;4.30;2.72;;;20.30;99.90;;;;;;10138574;28;20036;-73
2024/04/08 02:57:18;;;;;;;6.65;3.03;;;20.40;99.90;;;;;;10156091;28;20623;-73
2024/04/08 03:02:09;;;;;;;5.13;2.35;;;20.30;99.90;;;;;;10150227;28;20028;-73
2024/04/08 03:06:59;;;;;;;6.13;2.78;;;20.20;99.90;;;;;;10145407;28;20054;-73
2024/04/08 03:11:50;;;;;;;4.10;2.80;;;20.30;99.90;;;;;;10141470;28;20092;-73
2024/04/08 03:16:43;;;;;;;8.43;3.17;;;20.20;99.90;;;;;;10142902;28;20115;-74
2024/04/08 03:21:33;;;;;;;8.18;2.95;;;20.20;99.90;;;;;;10129976;28;20122;-73
2024/04/08 03:26:24;;;;;;;5.57;2.53;;;20.10;99.90;;;;;;10135826;28;20118;-73
2024/04/08 03:31:15;;;;;;;4.80;2.20;;;20.00;99.90;;;;;;10136941;28;20036;-73
2024/04/08 03:36:09;;;;;;;6.40;2.95;;;20.00;99.90;;;;;;10157147;28;20618;-72
2024/04/08 03:41:03;;;;;;;9.05;2.42;;;20.00;99.90;;;;;;10146786;28;20032;-73
2024/04/08 03:45:54;;;;;;;8.60;2.40;;;19.90;99.90;;;;;;10144953;28;20055;-73
2024/04/08 03:50:44;;;;;;;5.82;2.28;;;19.80;99.90;;;;;;10143745;28;20486;-73
2024/04/08 03:55:35;;;;;;;5.57;2.10;;;19.90;99.90;;;;;;10142357;28;20037;-73
2024/04/08 04:00:26;;;;;;;3.33;2.42;;;19.90;99.90;;;;;;10145398;28;20060;-73
2024/04/08 04:05:16;;;;;;;6.10;2.85;;;19.90;99.90;;;;;;10138529;28;20021;-73
2024/04/08 04:10:08;;;;;;;3.75;2.90;;;19.80;99.90;;;;;;10143581;28;20061;-73
2024/04/08 04:16:23;;;;;;;4.53;2.90;;;19.80;99.90;;;;;;10957198;25;20346;-72
2024/04/08 04:21:13;;;;;;;6.18;2.38;;;19.80;99.90;;;;;;10920920;26;19994;-71
2024/04/08 04:26:04;;;;;;;5.97;2.00;;;19.80;99.90;;;;;;10958339;26;19998;-73
2024/04/08 04:30:59;;;;;;;9.65;2.38;;;19.80;99.90;;;;;;10923650;26;19998;-72
2024/04/08 04:35:56;;;;;;;7.22;1.95;;;19.70;99.90;;;;;;10944306;26;20399;-72
2024/04/08 04:40:47;;;;;;;4.40;2.75;;;19.80;99.90;;;;;;10914468;26;20010;-73
2024/04/08 04:45:37;;;;;;;5.28;2.45;;;19.80;99.90;;;;;;10896327;26;20068;-73
2024/04/08 04:50:29;;;;;;;7.78;2.15;;;19.80;99.90;;;;;;10921741;26;20455;-72
2024/04/08 04:55:21;;;;;;;7.15;2.25;;;19.80;99.90;;;;;;10931707;25;20030;-73
2024/04/08 05:00:12;;;;;;;5.65;2.20;;;19.80;99.90;;;;;;10941787;26;19994;-73
2024/04/08 05:05:03;;;;;;;5.53;1.67;;;19.80;99.90;;;;;;10947833;26;19994;-73
2024/04/08 05:09:55;;;;;;;8.98;2.17;;;19.90;99.90;;;;;;10929955;26;19999;-73
2024/04/08 05:14:45;;;;;;;8.68;2.05;;;19.80;99.90;;;;;;10891157;26;20011;-73
2024/04/08 05:19:36;;;;;;;5.72;2.53;;;19.80;99.90;;;;;;10875020;26;20132;-72
2024/04/08 05:24:27;;;;;;;4.50;1.92;;;19.70;99.90;;;;;;10850236;26;20007;-73
2024/04/08 05:29:18;;;;;;;9.38;2.90;;;19.70;99.90;;;;;;10827788;26;20007;-74
2024/04/08 05:34:09;;;;;;;2.92;2.13;;;19.70;99.90;;;;;;10801383;26;20407;-73
2024/04/08 05:39:00;;;;;;;4.88;1.98;;;19.70;99.90;;;;;;10828849;26;20043;-74
2024/04/08 05:43:50;;;;;;;2.33;1.92;;;19.70;99.90;;;;;;10805359;26;20064;-75
2024/04/08 05:48:42;;;;;;;3.47;2.33;;;19.70;99.90;;;;;;10823984;26;19996;-74
2024/04/08 05:53:33;;;;;;;4.72;2.17;;;19.70;99.90;;;;;;10808879;26;20011;-74
2024/04/08 05:58:23;;;;;;;9.05;2.42;;;19.70;99.90;;;;;;10839283;26;20021;-75
2024/04/08 06:03:14;;;;;;;2.10;1.70;;;19.70;99.90;;;;;;10797479;26;20064;-74
2024/04/08 06:08:06;;;;;;;4.63;1.73;;;19.70;99.90;;;;;;10786171;26;20408;-72
2024/04/08 06:12:57;;;;;;;4.72;2.28;;;19.70;99.90;;;;;;10845340;26;20075;-72
2024/04/08 06:17:48;;;;;;;4.40;1.63;;;19.80;99.90;;;;;;10857870;26;20011;-74
2024/04/08 06:22:39;;;;;;;5.97;1.77;;;19.80;99.90;;;;;;10901789;26;20390;-74
2024/04/08 06:27:29;;;;;;;3.88;1.50;;;19.80;99.90;;;;;;10940415;26;20442;-73
2024/04/08 06:32:20;;;;;;;3.33;2.05;;;19.90;99.90;;;;;;10897709;26;20025;-73
2024/04/08 06:37:11;;;;;;;5.13;2.03;;;19.90;99.90;;;;;;10891071;26;20013;-73
2024/04/08 06:42:01;;;;;;;4.40;2.13;;;20.00;99.90;;;;;;10877081;26;19998;-71
2024/04/08 06:46:52;;;;;;;8.65;2.10;;;19.90;99.90;;;;;;10897142;26;20014;-71
2024/04/08 06:51:43;;;;;;;6.45;1.75;;;20.00;99.90;;;;;;10927147;26;20086;-72
2024/04/08 06:56:33;;;;;;;4.57;1.80;;;20.10;99.90;;;;;;10932933;26;20343;-71
2024/04/08 07:01:25;;;;;;;8.30;2.72;;;20.10;99.90;;;;;;10897498;26;20043;-72
2024/04/08 07:06:15;;;;;;;6.20;1.80;;;20.10;99.90;;;;;;10864434;26;20421;-72
2024/04/08 07:11:06;;;;;;;4.57;2.00;;;20.20;99.90;;;;;;10842188;26;20559;-71
2024/04/08 07:15:57;;;;;;;7.13;2.47;;;20.20;99.90;;;;;;10798727;26;20014;-73
2024/04/08 07:20:48;;;;;;;3.20;1.30;;;20.20;99.90;;;;;;10844451;26;19996;-73
2024/04/08 07:25:38;;;;;;;6.35;1.38;;;20.20;99.90;;;;;;10840215;26;20001;-74
2024/04/08 07:30:29;;;;;;;4.32;1.60;;;20.30;99.90;;;;;;10782921;26;20418;-74
2024/04/08 07:35:21;;;;;;;3.78;1.30;;;20.40;99.90;;;;;;10784229;26;20038;-72
2024/04/08 07:40:11;;;;;;;4.28;1.73;;;20.40;99.90;;;;;;10776162;26;20006;-72
2024/04/08 07:45:02;;;;;;;4.40;1.38;;;20.50;99.90;;;;;;10827556;26;19999;-73
2024/04/08 07:49:56;;;;;;;5.68;1.73;;;20.60;99.90;;;;;;10835153;26;19991;-71
2024/04/08 07:54:47;;;;;;;3.63;2.05;;;20.60;99.90;;;;;;10838948;26;19990;-73
2024/04/08 07:59:38;;;;;;;4.88;2.30;;;20.70;99.90;;;;;;10834509;26;20003;-73
2024/04/08 08:04:29;;;;;;;5.78;1.50;;;20.80;99.90;;;;;;10796009;26;20390;-72
2024/04/08 08:09:20;;;;;;;5.10;1.52;;;20.80;99.90;;;;;;10850884;26;20011;-72
2024/04/08 08:14:10;;;;;;;4.63;1.33;;;20.80;99.90;;;;;;10869108;26;20014;-71
2024/04/08 08:19:01;;;;;;;3.00;1.65;;;20.90;99.90;;;;;;10915991;26;19999;-72
2024/04/08 08:23:53;;;;;;;4.50;1.50;;;21.00;99.70;;;;;;10905107;26;20044;-73
2024/04/08 08:28:46;;;;;;;9.68;1.90;;;21.00;99.70;;;;;;10879466;26;20013;-71
2024/04/08 08:33:37;;;;;;;4.95;2.22;;;21.10;99.60;;;;;;10926808;26;20051;-73
2024/04/08 08:38:27;;;;;;;4.50;1.10;;;21.10;99.50;;;;;;10917393;26;20441;-73
2024/04/08 08:43:20;;;;;;;2.08;1.30;;;21.10;99.40;;;;;;10880851;26;20009;-70
2024/04/08 08:48:11;;;;;;;4.60;1.38;;;21.20;99.30;;;;;;10889370;26;20070;-70
2024/04/08 08:53:02;;;;;;;9.05;1.50;;;21.20;99.20;;;;;;10891470;26;20067;-71
2024/04/08 08:57:54;;;;;;;3.75;1.67;;;21.30;99.10;;;;;;10891033;26;20037;-71
2024/04/08 09:02:45;;;;;;;3.50;1.45;;;21.40;99.10;;;;;;10919165;26;20075;-73
2024/04/08 09:07:36;;;;;;;2.13;1.17;;;21.50;99.00;;;;;;10882473;26;20543;-71
2024/04/08 09:12:28;;;;;;;3.03;1.45;;;21.60;99.00;;;;;;10914116;26;20422;-72
2024/04/08 09:17:19;;;;;;;5.68;2.03;;;21.70;99.00;;;;;;10922643;26;20008;-70
2024/04/08 09:22:10;;;;;;;3.58;1.45;;;21.70;99.00;;;;;;10893564;26;20016;-70
2024/04/08 09:27:01;;;;;;;2.15;1.15;;;21.70;99.00;;;;;;10896449;26;20014;-72
2024/04/08 09:31:52;;;;;;;3.05;1.30;;;21.60;99.00;;;;;;10900905;26;20003;-73
2024/04/08 09:36:43;;;;;;;5.40;1.88;;;21.50;99.00;;;;;;10893150;26;19994;-73
2024/04/08 09:41:35;;;;;;;3.78;1.58;;;21.50;99.00;;;;;;10913472;26;20463;-72
2024/04/08 09:46:27;;;;;;;3.80;1.20;;;21.60;99.00;;;;;;10876875;26;20003;-70
2024/04/08 09:51:19;;;;;;;2.95;1.27;;;21.60;98.90;;;;;;10895124;26;20079;-70
2024/04/08 09:56:17;;;;;;;4.13;1.60;;;21.70;98.80;;;;;;10895323;26;20600;-72
2024/04/08 10:01:12;;;;;;;3.10;1.45;;;21.90;98.60;;;;;;10907435;26;20002;-70
2024/04/08 10:06:03;;;;;;;4.60;2.40;;;22.00;98.50;;;;;;10931708;26;19995;-71
2024/04/08 10:10:54;;;;;;;6.30;2.00;;;22.00;98.50;;;;;;10922685;26;19998;-72
2024/04/08 10:15:45;;;;;;;5.88;2.08;;;22.00;98.40;;;;;;10837816;26;20012;-72
2024/04/08 10:20:42;;;;;;;5.10;1.88;;;22.00;98.40;;;;;;10772376;26;20000;-72
2024/04/08 10:25:43;;;;;;;2.85;1.55;;;21.90;98.40;;;;;;10823752;26;20401;-73
2024/04/08 10:30:36;;;;;;;5.18;1.50;;;21.80;98.40;;;;;;10820267;26;20035;-72
2024/04/08 10:35:27;;;;;;;4.47;1.70;;;21.80;98.40;;;;;;10858725;26;20010;-71
2024/04/08 10:40:23;;;;;;;3.28;1.67;;;21.90;98.30;;;;;;10853483;26;19999;-71
2024/04/08 10:45:14;;;;;;;3.72;1.48;;;22.00;98.30;;;;;;10827129;26;19999;-74
2024/04/08 10:50:08;;;;;;;4.38;1.58;;;22.10;98.30;;;;;;10830854;26;20007;-71
2024/04/08 10:54:59;;;;;;;5.63;1.50;;;22.10;98.40;;;;;;10863384;26;20009;-71
2024/04/08 10:59:49;;;;;;;8.73;1.60;;;22.20;98.40;;;;;;10843125;26;20017;-72
2024/04/08 11:04:40;;;;;;;4.25;1.40;;;22.30;98.40;;;;;;10811378;26;20007;-72
2024/04/08 11:09:31;;;;;;;4.75;1.45;;;22.40;98.60;;;;;;10833537;26;20023;-69
2024/04/08 11:14:22;;;;;;;5.57;1.13;;;22.40;98.20;;;;;;10863086;26;20027;-73
2024/04/08 11:19:13;;;;;;;2.03;1.02;;;22.50;98.10;;;;;;10942006;26;20043;-75
2024/04/08 11:24:04;;;;;;;5.35;1.48;;;22.60;97.90;;;;;;10908368;26;20074;-76
2024/04/08 11:29:00;;;;;;;3.85;1.25;;;22.70;97.80;;;;;;10889797;26;20035;-75
2024/04/08 11:33:50;;;;;;;3.83;1.20;;;22.80;97.70;;;;;;10897319;26;20014;-76
2024/04/08 11:38:41;;;;;;;3.25;1.65;;;22.80;97.60;;;;;;10884616;26;20018;-72
2024/04/08 11:43:35;;;;;;;2.15;1.60;;;22.90;97.50;;;;;;10908437;26;20003;-75
2024/04/08 11:48:26;;;;;;;4.60;2.17;;;23.00;97.40;;;;;;10864825;26;20002;-73
2024/04/08 11:53:17;;;;;;;2.83;1.13;;;23.00;97.30;;;;;;10880772;26;20515;-72
2024/04/08 11:58:08;;;;;;;8.73;1.58;;;23.10;97.20;;;;;;10879737;26;20038;-72
2024/04/08 12:02:59;;;;;;;9.43;1.83;;;23.20;97.00;;;;;;10871847;26;19995;-72
2024/04/08 12:07:49;;;;;;;4.13;1.35;;;23.20;96.90;;;;;;10883319;26;20027;-72
2024/04/08 12:12:40;;;;;;;1.60;1.27;;;23.40;96.70;;;;;;10887975;26;20352;-72
2024/04/08 12:17:31;;;;;;;2.17;1.15;;;23.50;96.60;;;;;;10910181;26;20621;-72
2024/04/08 12:22:22;;;;;;;2.72;1.10;;;23.60;96.40;;;;;;10901542;26;20577;-72
2024/04/08 12:27:13;;;;;;;6.20;1.05;;;23.70;96.30;;;;;;10922305;26;20002;-72
2024/04/08 12:32:04;;;;;;;3.88;1.00;;;23.90;96.00;;;;;;10896119;26;19991;-72
2024/04/08 12:36:56;;;;;;;2.58;1.23;;;24.00;95.70;;;;;;10896114;26;19999;-71
2024/04/08 12:41:46;;;;;;;3.28;1.20;;;24.10;95.50;;;;;;10927509;26;20011;-72
2024/04/08 12:46:37;;;;;;;2.85;1.30;;;24.20;95.30;;;;;;10885521;26;19999;-73
2024/04/08 12:51:28;;;;;;;7.18;1.40;;;24.20;95.10;;;;;;10894935;26;20009;-72
2024/04/08 12:56:18;;;;;;;7.78;1.50;;;24.20;95.00;;;;;;10888963;26;20070;-75
2024/04/08 13:01:09;;;;;;;3.13;1.17;;;24.10;94.80;;;;;;10861209;26;20137;-72
2024/04/08 13:06:01;;;;;;;5.57;1.85;;;24.00;94.70;;;;;;10863601;26;20687;-68
2024/04/08 13:10:51;;;;;;;3.38;1.27;;;24.20;94.70;;;;;;10916155;26;20074;-69
2024/04/08 13:15:42;;;;;;;2.72;1.10;;;24.10;94.60;;;;;;10849588;26;20911;-69
2024/04/08 13:20:33;;;;;;;3.67;1.38;;;24.00;94.60;;;;;;10827087;26;20003;-68
2024/04/08 13:25:23;;;;;;;7.40;1.60;;;24.00;94.60;;;;;;10822777;26;20001;-69
2024/04/08 13:30:14;;;;;;;5.10;1.60;;;24.00;94.60;;;;;;10844613;26;20003;-69
2024/04/08 13:35:05;;;;;;;4.45;2.10;;;24.10;94.60;;;;;;10787623;26;20004;-72
2024/04/08 13:39:55;;;;;;;4.45;1.70;;;24.30;94.60;;;;;;10832207;26;20121;-74
2024/04/08 13:44:47;;;;;;;12.82;1.77;;;24.50;94.70;;;;;;10790622;26;20749;-74
2024/04/08 13:49:38;;;;;;;6.47;1.48;;;24.70;94.60;;;;;;10815644;26;20012;-72
2024/04/08 13:54:29;;;;;;;4.18;1.58;;;24.60;94.70;;;;;;10798099;26;20002;-73
2024/04/08 13:59:20;;;;;;;8.57;1.65;;;24.50;94.80;;;;;;10804076;26;19996;-73
2024/04/08 14:04:12;;;;;;;5.78;1.80;;;24.40;94.90;;;;;;10820538;26;19995;-72
2024/04/08 14:09:03;;;;;;;3.50;1.70;;;24.50;95.00;;;;;;10813086;26;19995;-72
2024/04/08 14:13:56;;;;;;;9.45;1.67;;;24.60;95.00;;;;;;10798974;26;20010;-74
2024/04/08 14:18:46;;;;;;;7.30;1.75;;;24.70;95.00;;;;;;10835574;26;19998;-74
2024/04/08 14:23:37;;;;;;;2.50;1.55;;;25.20;94.90;;;;;;10845455;26;19999;-73
2024/04/08 14:28:28;;;;;;;4.75;2.13;;;25.40;94.90;;;;;;10915988;26;20000;-74
2024/04/08 14:33:18;;;;;;;5.22;1.42;;;25.40;94.90;;;;;;10896266;26;20046;-74
2024/04/08 14:38:09;;;;;;;9.48;4.90;;;25.70;94.90;;;;;;10876091;26;20006;-76
2024/04/08 14:43:00;;;;;;;9.05;3.28;;;26.20;94.80;;;;;;10867058;26;20064;-76
2024/04/08 14:47:51;;;;;;;9.98;3.80;;;26.30;94.60;;;;;;10836887;26;19995;-72
2024/04/08 14:52:42;;;;;;;10.98;2.10;;;26.50;94.50;;;;;;10903267;26;20046;-72
2024/04/08 14:57:32;;;;;;;6.63;3.33;;;26.70;94.40;;;;;;10903266;26;19995;-75
2024/04/08 15:02:23;;;;;;;8.13;1.73;;;26.80;94.30;;;;;;10888011;26;20038;-76
2024/04/08 15:07:14;;;;;;;6.97;2.50;;;27.10;94.50;;;;;;10850568;26;20437;-75
2024/04/08 15:12:05;;;;;;;7.13;2.10;;;27.20;94.20;;;;;;10900478;26;19994;-73
2024/04/08 15:16:55;;;;;;;5.65;2.20;;;27.40;94.00;;;;;;10907988;26;20241;-73
2024/04/08 15:21:46;;;;;;;6.53;2.67;;;27.60;94.00;;;;;;10897821;26;20208;-74
2024/04/08 15:26:37;;;;;;;9.15;3.03;;;27.70;93.80;;;;;;10878256;26;20022;-71
2024/04/08 15:31:28;;;;;;;8.27;3.15;;;27.80;93.60;;;;;;10891644;26;20449;-72
2024/04/08 15:36:19;;;;;;;8.82;3.70;;;27.80;93.50;;;;;;10870183;26;20014;-74
2024/04/08 15:41:09;;;;;;;10.05;2.50;;;27.90;93.40;;;;;;10822319;26;20003;-73
2024/04/08 15:46:05;;;;;;;9.57;2.47;;;28.00;93.40;;;;;;10880127;26;19995;-71
2024/04/08 15:50:55;;;;;;;6.20;2.15;;;28.00;93.30;;;;;;10859003;26;20074;-74
2024/04/08 15:55:47;;;;;;;8.18;2.42;;;28.00;93.30;;;;;;10860756;26;20074;-73
2024/04/08 16:00:38;;;;;;;10.18;2.63;;;28.10;93.30;;;;;;10863388;26;20010;-73
2024/04/08 16:05:29;;;;;;;9.18;4.07;;;28.10;93.30;;;;;;10861850;26;19997;-74
2024/04/08 16:10:19;;;;;;;12.90;4.57;;;28.10;93.20;;;;;;10909867;26;20132;-72
2024/04/08 16:15:10;;;;;;;10.73;3.08;;;28.00;93.20;;;;;;10883604;26;20081;-70
2024/04/08 16:20:04;;;;;;;13.15;3.17;;;28.00;93.20;;;;;;10894600;26;19995;-71
2024/04/08 16:24:55;;;;;;;12.13;3.20;;;28.00;93.20;;;;;;10903114;26;20007;-71
2024/04/08 16:29:46;;;;;;;13.43;3.08;;;28.00;93.30;;;;;;10891272;26;20427;-71
2024/04/08 16:34:37;;;;;;;9.98;2.95;;;27.90;93.40;;;;;;10898991;26;20238;-72
2024/04/08 16:39:28;;;;;;;12.10;3.15;;;27.80;93.80;;;;;;10837545;26;20022;-71
2024/04/08 16:44:19;;;;;;;8.68;3.13;;;27.60;93.60;;;;;;10882867;26;20323;-72
2024/04/08 16:49:10;;;;;;;9.40;3.03;;;27.50;93.70;;;;;;10903528;26;19998;-75
2024/04/08 16:54:01;;;;;;;9.15;2.67;;;27.30;93.80;;;;;;10861317;26;20018;-72
2024/04/08 16:58:55;;;;;;;9.18;2.60;;;27.10;93.80;;;;;;10894775;26;19995;-74
2024/04/08 17:03:47;;;;;;;11.80;2.85;;;26.90;93.70;;;;;;10908778;26;20024;-73
2024/04/08 17:08:37;;;;;;;10.55;2.75;;;26.80;93.70;;;;;;10909716;26;20006;-75
2024/04/08 17:13:35;;;;;;;10.02;2.70;;;26.70;93.70;;;;;;10857144;26;20002;-72
2024/04/08 17:18:26;;;;;;;13.15;3.58;;;26.60;93.70;;;;;;10915453;26;20439;-73
2024/04/08 17:23:21;;;;;;;12.70;3.08;;;26.50;93.60;;;;;;10895611;26;20331;-73
2024/04/08 17:28:11;;;;;;;8.32;3.05;;;26.40;93.60;;;;;;10911406;26;20002;-68
2024/04/08 17:33:03;;;;;;;9.27;4.35;;;26.40;93.40;;;;;;10923556;26;19998;-73
2024/04/08 17:37:56;;;;;;;12.90;4.35;;;26.30;93.40;;;;;;10899401;26;20528;-73
2024/04/08 17:42:47;;;;;;;14.25;3.58;;;26.30;93.50;;;;;;10897449;26;20006;-75
2024/04/08 17:47:38;;;;;;;5.88;2.58;;;26.30;93.40;;;;;;10877977;26;20006;-76
2024/04/08 17:52:28;;;;;;;18.42;3.55;;;26.30;93.40;;;;;;10908732;26;20030;-76
2024/04/08 17:57:19;;;;;;;12.40;4.10;;;26.30;93.40;;;;;;10929181;26;19995;-78
2024/04/08 18:02:10;;;;;;;11.70;4.43;;;26.20;93.50;;;;;;10912576;26;19991;-76
2024/04/08 18:07:03;;;;;;;13.07;4.70;;;26.20;93.50;;;;;;10868114;26;19998;-76
2024/04/08 18:11:53;;;;;;;10.80;3.90;;;26.10;93.50;;;;;;10863056;26;20067;-76
2024/04/08 18:16:44;;;;;;;6.43;2.80;;;26.10;93.50;;;;;;10922329;26;20117;-77
2024/04/08 18:21:35;;;;;;;12.82;4.50;;;26.10;93.60;;;;;;10900596;26;20010;-77
2024/04/08 18:26:26;;;;;;;13.13;3.63;;;26.10;93.70;;;;;;10940334;26;19998;-78
2024/04/08 18:31:18;;;;;;;12.10;3.00;;;25.90;93.90;;;;;;10929437;26;19998;-76
2024/04/08 18:36:12;;;;;;;9.05;3.15;;;25.80;94.10;;;;;;10911154;26;20009;-76
2024/04/08 18:41:09;;;;;;;8.60;3.33;;;25.80;94.20;;;;;;10929080;26;19998;-78
2024/04/08 18:46:02;;;;;;;10.13;3.70;;;25.80;94.40;;;;;;10928979;26;20038;-77
2024/04/08 18:50:53;;;;;;;10.40;3.67;;;25.70;94.50;;;;;;10922543;26;20002;-78
2024/04/08 18:55:44;;;;;;;15.85;4.35;;;25.70;94.60;;;;;;10881834;26;20003;-78
2024/04/08 19:00:35;;;;;;;9.38;3.40;;;25.80;94.70;;;;;;10907861;26;20774;-79
2024/04/08 19:05:25;;;;;;;11.65;3.03;;;25.60;94.80;;;;;;10947161;26;19994;-80
2024/04/08 19:10:16;;;;;;;6.00;2.53;;;25.60;94.90;;;;;;10886885;20;20011;-70
2024/04/08 19:15:07;;;;;;;9.65;3.00;;;25.70;95.00;;;;;;10828468;26;20027;-69
2024/04/08 19:19:58;;;;;;;10.70;3.05;;;25.60;95.00;;;;;;10828056;26;20003;-69
2024/04/08 19:24:49;;;;;;;10.35;3.13;;;25.60;95.10;;;;;;10835380;26;20003;-69
2024/04/08 19:29:39;;;;;;;4.43;2.45;;;25.60;95.20;;;;;;10788929;26;19999;-68
2024/04/08 19:34:30;;;;;;;8.48;3.20;;;25.50;95.30;;;;;;10844044;26;19998;-69
2024/04/08 19:39:20;;;;;;;10.93;3.47;;;25.50;95.40;;;;;;10847042;26;20065;-69
2024/04/08 19:44:11;;;;;;;12.13;4.68;;;25.40;95.40;;;;;;10804460;26;20326;-70
2024/04/08 19:49:02;;;;;;;8.77;4.10;;;25.30;95.50;;;;;;10823191;26;20302;-71
2024/04/08 19:53:52;;;;;;;9.57;4.93;;;25.30;95.60;;;;;;10811678;26;19995;-68
2024/04/08 19:58:43;;;;;;;7.00;4.05;;;25.20;95.70;;;;;;10831830;26;20014;-68
2024/04/08 20:03:41;;;;;;;11.10;3.80;;;25.10;95.70;;;;;;10841930;26;20052;-69
2024/04/08 20:08:34;;;;;;;6.93;2.75;;;25.00;95.80;;;;;;10826001;26;20007;-68
2024/04/08 20:13:25;;;;;;;9.35;3.00;;;25.00;95.80;;;;;;10836597;26;20006;-67
2024/04/08 20:18:16;;;;;;;6.03;3.40;;;25.00;95.90;;;;;;10829076;26;19991;-69
2024/04/08 20:23:06;;;;;;;11.13;2.88;;;24.90;95.90;;;;;;10830330;26;19992;-67
2024/04/08 20:27:57;;;;;;;7.85;3.45;;;24.90;95.90;;;;;;10801103;26;19995;-69
2024/04/08 20:32:48;;;;;;;9.23;2.85;;;24.90;95.90;;;;;;10820157;26;20044;-68
2024/04/08 20:37:38;;;;;;;7.60;3.47;;;24.90;96.00;;;;;;10852325;26;20035;-68
2024/04/08 20:42:30;;;;;;;9.05;2.97;;;24.90;96.00;;;;;;10851363;26;20006;-67
2024/04/08 20:47:20;;;;;;;8.88;3.47;;;24.80;95.90;;;;;;10837307;26;20014;-72
2024/04/08 20:52:11;;;;;;;8.20;2.97;;;24.80;95.90;;;;;;10821330;26;20006;-71
2024/04/08 20:57:03;;;;;;;12.73;3.72;;;24.80;95.90;;;;;;10882579;26;19999;-69
2024/04/08 21:01:53;;;;;;;9.55;4.90;;;24.70;96.00;;;;;;10864179;26;20010;-70
2024/04/08 21:06:44;;;;;;;12.23;4.18;;;24.60;96.10;;;;;;10836440;26;20532;-68
2024/04/08 21:11:35;;;;;;;9.75;4.97;;;24.50;96.10;;;;;;10848257;26;20018;-69
2024/04/08 21:16:26;;;;;;;11.38;4.30;;;24.50;96.30;;;;;;10819902;26;20425;-68
2024/04/08 21:21:17;;;;;;;9.30;3.95;;;24.50;96.40;;;;;;10885588;26;19998;-70
2024/04/08 21:26:18;;;;;;;38.67;24.85;;;24.30;96.50;;;;;;10877001;26;20487;-73
2024/04/08 21:31:09;;;;;;;104.57;60.78;;;24.40;96.70;;;;;;10860068;26;20018;-81
2024/04/08 21:36:01;;;;;;;26.92;16.83;;;24.50;96.70;;;;;;10854722;26;20078;-77
2024/04/08 21:41:03;;;;;;;12.45;5.75;;;24.50;96.70;;;;;;10806403;26;20015;-79
2024/04/08 21:45:59;;;;;;;9.07;4.68;;;24.40;96.80;;;;;;10821624;26;20076;-76
2024/04/08 21:50:51;;;;;;;9.05;4.90;;;24.30;96.90;;;;;;10832137;26;20004;-83
2024/04/08 21:55:51;;;;;;;8.27;4.88;;;24.30;97.10;;;;;;10841047;26;20377;-74
2024/04/08 22:00:43;;;;;;;8.35;3.67;;;24.10;97.10;;;;;;10832419;26;20018;-75
2024/04/08 22:05:33;;;;;;;14.00;4.93;;;24.10;97.20;;;;;;10815785;26;20033;-75
2024/04/08 22:10:24;;;;;;;13.52;4.35;;;24.10;97.10;;;;;;10850642;26;20009;-74
2024/04/08 22:15:15;;;;;;;12.93;3.50;;;24.10;97.10;;;;;;10858534;26;19999;-70
2024/04/08 22:20:06;;;;;;;13.00;3.95;;;24.10;97.20;;;;;;10868230;26;20317;-70
2024/04/08 22:24:57;;;;;;;7.00;3.95;;;24.10;97.30;;;;;;10801633;26;19995;-65
2024/04/08 22:29:47;;;;;;;8.90;4.32;;;24.10;97.30;;;;;;10844445;26;20003;-65
2024/04/08 22:34:38;;;;;;;12.98;3.92;;;23.90;97.40;;;;;;10827033;26;20106;-67
2024/04/08 22:39:29;;;;;;;6.97;4.03;;;23.90;97.40;;;;;;10836270;26;20365;-64
2024/04/08 22:44:21;;;;;;;14.13;4.47;;;23.90;97.50;;;;;;10848177;26;20002;-68
2024/04/08 22:49:12;;;;;;;8.27;3.45;;;23.90;97.60;;;;;;10844596;26;19995;-72
2024/04/08 22:54:06;;;;;;;12.00;3.97;;;23.80;97.50;;;;;;10840574;26;20022;-66
2024/04/08 22:58:56;;;;;;;8.45;3.50;;;23.80;97.60;;;;;;10840982;26;20033;-65
2024/04/08 23:03:47;;;;;;;9.00;3.28;;;23.80;97.60;;;;;;10869160;26;20190;-65
2024/04/08 23:08:37;;;;;;;13.27;3.88;;;23.70;97.60;;;;;;10860969;26;20709;-65
2024/04/08 23:13:28;;;;;;;9.75;3.53;;;23.60;97.70;;;;;;10836840;26;20100;-65
2024/04/08 23:18:19;;;;;;;10.68;2.90;;;23.60;97.80;;;;;;10849854;26;20578;-65
2024/04/08 23:23:09;;;;;;;11.18;3.47;;;23.60;97.80;;;;;;10844971;26;20028;-65
2024/04/08 23:28:00;;;;;;;12.20;4.35;;;23.60;97.80;;;;;;10804638;26;20522;-64
2024/04/08 23:32:51;;;;;;;16.70;3.95;;;23.60;97.70;;;;;;10828450;26;19995;-66
2024/04/08 23:37:41;;;;;;;9.90;3.28;;;23.60;97.80;;;;;;10824634;26;20874;-64
2024/04/08 23:42:32;;;;;;;7.40;3.45;;;23.50;97.90;;;;;;10857601;26;20064;-65
2024/04/08 23:47:23;;;;;;;8.75;3.03;;;23.50;98.00;;;;;;10861958;26;19999;-65
2024/04/08 23:52:13;;;;;;;14.45;3.45;;;23.50;98.00;;;;;;10855089;26;20014;-66
2024/04/08 23:57:04;;;;;;;9.52;4.57;;;23.60;98.10;;;;;;10848496;26;20007;-64
